Time;durP1;ratioP1;P1;durP2;ratioP2;P2;SDS_P1;SDS_P2;PMS_P1;PMS_P2;Temp;Humidity;BMP_temperature;BMP_pressure;BME280_temperature;BME280_humidity;BME280_pressure;Samples;Min_cycle;Max_cycle;Signal;HPM_P1;HPM_P2
2021/08/26 00:00:52;;;;;;;6.90;5.10;;;;;;;28.59;41.39;100390.56;112658;1222;64739;-89
2021/08/26 00:06:21;;;;;;;7.40;4.80;;;;;;;28.59;41.61;100397.82;112673;1221;60923;-87
2021/08/26 00:09:07;;;;;;;7.70;5.10;;;;;;;28.59;41.65;100399.80;112699;1221;60994;-84
2021/08/26 00:11:46;;;;;;;6.70;4.90;;;;;;;28.59;41.71;100406.69;112697;1221;63417;-85
2021/08/26 00:14:30;;;;;;;5.70;4.80;;;;;;;28.59;41.60;100402.34;112962;1218;67321;-88
2021/08/26 00:16:56;;;;;;;6.30;4.90;;;;;;;28.59;41.78;100395.13;112955;1218;60816;-90
2021/08/26 00:19:30;;;;;;;;;;;;;;;28.59;41.76;100397.86;112995;1218;60976;-87
2021/08/26 00:22:07;;;;;;;6.50;5.10;;;;;;;28.58;41.78;100400.67;112988;1217;63669;-86
2021/08/26 00:24:49;;;;;;;6.80;5.20;;;;;;;28.58;41.67;100403.39;112902;1216;65936;-88
2021/08/26 00:27:26;;;;;;;7.50;4.80;;;;;;;28.58;41.74;100402.81;112962;1218;60948;-88
2021/08/26 00:29:59;;;;;;;6.70;5.00;;;;;;;28.58;41.67;100400.48;112997;1217;60995;-93
2021/08/26 00:32:28;;;;;;;6.70;4.80;;;;;;;28.58;41.71;100401.73;112952;1218;63842;-90
2021/08/26 00:35:03;;;;;;;6.70;5.10;;;;;;;28.58;41.61;100393.75;112948;1211;61002;-87
2021/08/26 00:37:31;;;;;;;6.00;4.70;;;;;;;28.58;41.79;100394.45;112953;1212;61008;-88
2021/08/26 00:40:07;;;;;;;6.70;4.80;;;;;;;28.58;41.76;100402.45;112997;1218;60923;-84
2021/08/26 00:42:37;;;;;;;5.80;5.00;;;;;;;28.58;41.66;100405.02;112967;1214;64843;-85
2021/08/26 00:45:17;;;;;;;5.70;4.80;;;;;;;28.58;41.64;100405.52;112955;1212;65756;-85
2021/08/26 00:47:52;;;;;;;;;;;;;;;28.58;42.01;100402.00;113009;1218;60987;-88
2021/08/26 00:50:24;;;;;;;6.60;5.00;;;;;;;28.56;41.79;100402.70;112984;1216;60991;-89
2021/08/26 00:53:00;;;;;;;6.50;4.90;;;;;;;28.56;41.64;100402.65;112953;1218;65022;-86
2021/08/26 00:55:29;;;;;;;7.10;5.00;;;;;;;28.56;41.73;100398.50;112954;1218;66787;-89
2021/08/26 00:58:01;;;;;;;6.20;4.50;;;;;;;28.56;41.75;100395.98;112939;1218;60992;-87
2021/08/26 01:00:30;;;;;;;6.70;5.00;;;;;;;28.56;41.82;100397.95;112944;1218;61038;-84
2021/08/26 01:03:08;;;;;;;;;;;;;;;28.56;41.71;100393.79;112969;1213;63699;-86
2021/08/26 01:06:11;;;;;;;6.80;5.20;;;;;;;28.55;41.69;100392.91;112991;1218;65553;-84
2021/08/26 01:08:45;;;;;;;6.30;4.90;;;;;;;28.55;41.75;100396.70;113002;1218;61007;-86
2021/08/26 01:11:24;;;;;;;5.60;4.30;;;;;;;28.55;41.82;100401.55;112929;1218;60972;-85
2021/08/26 01:13:57;;;;;;;5.30;4.50;;;;;;;28.55;41.75;100401.38;112945;1219;72222;-92
2021/08/26 01:16:39;;;;;;;6.50;5.00;;;;;;;28.55;42.06;100402.47;112985;1218;65740;-82
2021/08/26 01:19:14;;;;;;;6.00;4.70;;;;;;;28.55;41.89;100403.73;112976;1214;61049;-88
2021/08/26 01:21:39;;;;;;;6.40;4.90;;;;;;;28.55;41.87;100397.03;112926;1220;61780;-84
2021/08/26 01:24:28;;;;;;;7.20;4.60;;;;;;;28.56;41.60;100399.14;112664;1214;64686;-83
2021/08/26 01:26:57;;;;;;;5.40;4.70;;;;;;;28.56;41.72;100396.97;112664;1219;65809;-84
2021/08/26 01:29:31;;;;;;;6.00;4.80;;;;;;;28.55;41.75;100393.88;112659;1212;60985;-88
2021/08/26 01:32:06;;;;;;;7.10;4.90;;;;;;;28.56;41.84;100393.69;112689;1216;61476;-85
2021/08/26 01:34:34;;;;;;;6.30;4.50;;;;;;;28.56;41.76;100397.66;112671;1213;64998;-91
2021/08/26 01:37:01;;;;;;;7.20;4.70;;;;;;;28.56;41.86;100398.04;112640;1219;66907;-85
2021/08/26 01:39:27;;;;;;;5.80;4.70;;;;;;;28.55;41.76;100402.78;112658;1216;61012;-89
2021/08/26 01:42:02;;;;;;;5.50;4.30;;;;;;;28.56;41.93;100401.45;112892;1214;61003;-83
2021/08/26 01:44:31;;;;;;;7.20;4.70;;;;;;;28.55;41.89;100398.26;112869;1220;63689;-81
2021/08/26 01:47:09;;;;;;;5.60;4.70;;;;;;;28.55;42.02;100404.02;112664;1219;65765;-84
2021/08/26 01:49:35;;;;;;;5.90;4.30;;;;;;;28.55;41.93;100403.31;112876;1213;61079;-84
2021/08/26 01:52:45;;;;;;;5.10;4.20;;;;;;;28.55;41.92;100399.41;112659;1220;60902;-85
2021/08/26 01:55:14;;;;;;;5.30;4.60;;;;;;;28.55;41.95;100400.33;112692;1219;64688;-87
2021/08/26 01:58:00;;;;;;;5.60;4.60;;;;;;;28.55;42.08;100402.27;112942;1214;66865;-85
2021/08/26 02:00:35;;;;;;;5.30;4.40;;;;;;;28.55;41.96;100402.46;113007;1217;60970;-88
2021/08/26 02:03:21;;;;;;;5.70;4.60;;;;;;;28.55;41.89;100400.63;112976;1218;61202;-87
2021/08/26 02:05:50;;;;;;;6.10;4.70;;;;;;;28.55;42.07;100401.38;112951;1216;63813;-85
2021/08/26 02:08:18;;;;;;;;;;;;;;;28.55;42.10;100397.20;112956;1212;65502;-84
2021/08/26 02:11:09;;;;;;;6.40;4.60;;;;;;;28.53;41.79;100401.59;112959;1218;61024;-89
2021/08/26 02:13:42;;;;;;;5.50;4.40;;;;;;;28.53;41.86;100403.05;112535;1219;61078;-89
2021/08/26 02:16:14;;;;;;;6.10;4.20;;;;;;;28.53;41.73;100400.70;112535;1216;64736;-86
2021/08/26 02:18:49;;;;;;;5.40;4.30;;;;;;;28.53;41.87;100395.08;112519;1215;65192;-86
2021/08/26 02:21:27;;;;;;;;;;;;;;;;;;;;;
2021/08/26 02:23:57;;;;;;;5.40;4.40;;;;;;;28.53;42.02;100396.19;112504;1216;61133;-87
2021/08/26 02:26:36;;;;;;;5.10;4.20;;;;;;;28.53;42.03;100394.73;112495;1222;63763;-86
2021/08/26 02:29:17;;;;;;;4.80;4.20;;;;;;;28.53;42.00;100388.93;112539;1215;65642;-87
2021/08/26 02:31:58;;;;;;;5.40;4.20;;;;;;;28.53;42.00;100388.97;112178;1221;60959;-86
2021/08/26 02:34:43;;;;;;;5.00;4.10;;;;;;;28.53;41.87;100386.41;112567;1216;61047;-84
2021/08/26 02:37:28;;;;;;;6.40;4.20;;;;;;;28.53;42.07;100389.13;112565;1222;65146;-88
2021/08/26 02:40:04;;;;;;;5.90;4.20;;;;;;;28.52;42.02;100389.74;112104;1217;66211;-87
2021/08/26 02:42:34;;;;;;;6.30;4.20;;;;;;;28.52;41.90;100391.17;112129;1219;61146;-84
2021/08/26 02:45:00;;;;;;;5.60;4.30;;;;;;;28.52;42.07;100390.11;112168;1224;60998;-90
2021/08/26 02:47:29;;;;;;;6.90;4.10;;;;;;;28.52;42.07;100389.00;112108;1219;61114;-85
2021/08/26 02:50:00;;;;;;;;;;;;;;;28.53;41.91;100386.23;112144;1219;66595;-83
2021/08/26 02:52:34;;;;;;;5.20;4.10;;;;;;;28.51;42.04;100387.94;112580;1221;61099;-86
2021/08/26 02:55:00;;;;;;;5.10;4.00;;;;;;;28.51;42.00;100387.73;112601;1216;61159;-88
2021/08/26 02:57:29;;;;;;;5.70;4.10;;;;;;;28.51;42.04;100390.42;112578;1216;61085;-86
2021/08/26 02:59:55;;;;;;;;;;;;;;;28.51;42.02;100381.77;112599;1215;65750;-86
2021/08/26 03:02:22;;;;;;;6.20;3.80;;;;;;;28.49;42.04;100382.84;112616;1219;60979;-86
2021/08/26 03:04:50;;;;;;;5.20;4.00;;;;;;;28.49;42.13;100381.02;112602;1213;60981;-86
2021/08/26 03:07:19;;;;;;;5.00;4.10;;;;;;;28.49;41.80;100371.79;112588;1219;64781;-88
2021/08/26 03:09:55;;;;;;;5.10;3.90;;;;;;;28.50;41.97;100375.17;112599;1221;65658;-89
2021/08/26 03:12:36;;;;;;;5.20;3.90;;;;;;;28.49;42.03;100370.52;112594;1220;61002;-86
2021/08/26 03:15:08;;;;;;;5.30;3.90;;;;;;;28.49;42.20;100372.53;112609;1216;61097;-85
2021/08/26 03:17:33;;;;;;;5.50;3.80;;;;;;;28.49;42.11;100368.77;112578;1213;63963;-84
2021/08/26 03:20:20;;;;;;;4.70;3.80;;;;;;;28.49;42.03;100373.95;112636;1221;61107;-84
2021/08/26 03:22:53;;;;;;;5.50;3.70;;;;;;;28.49;42.20;100373.24;112590;1219;61283;-89
2021/08/26 03:25:29;;;;;;;5.10;4.00;;;;;;;28.49;42.21;100370.91;112600;1222;61234;-89
2021/08/26 03:28:09;;;;;;;5.20;3.90;;;;;;;28.49;42.24;100370.55;112308;1222;63556;-90
2021/08/26 03:30:53;;;;;;;;;;;;;;;;;;;;;
2021/08/26 03:33:19;;;;;;;5.60;3.70;;;;;;;28.49;41.96;100374.16;112659;1213;61083;-83
2021/08/26 03:35:57;;;;;;;4.70;3.90;;;;;;;28.49;42.13;100379.76;112643;1221;61030;-88
2021/08/26 03:38:23;;;;;;;4.30;3.40;;;;;;;28.49;42.24;100383.36;112649;1221;64895;-88
2021/08/26 03:41:12;;;;;;;5.60;3.70;;;;;;;28.49;42.01;100381.76;112615;1213;69010;-87
2021/08/26 03:43:47;;;;;;;;;;;;;;;28.50;41.92;100386.41;112637;1222;60985;-89
2021/08/26 03:46:22;;;;;;;4.70;3.50;;;;;;;28.47;42.22;100382.89;112664;1221;60963;-85
2021/08/26 03:48:56;;;;;;;4.70;3.40;;;;;;;28.48;41.95;100384.64;112655;1213;63689;-84
2021/08/26 03:51:27;;;;;;;4.70;3.60;;;;;;;28.47;42.07;100386.27;112663;1213;65840;-89
2021/08/26 03:54:00;;;;;;;4.70;3.50;;;;;;;28.48;42.08;100386.96;112611;1222;60842;-88
2021/08/26 03:56:35;;;;;;;;;;;;;;;;;;;;;
2021/08/26 03:59:03;;;;;;;5.20;3.60;;;;;;;28.47;42.02;100386.11;112668;1213;64583;-83
2021/08/26 04:01:32;;;;;;;4.80;3.40;;;;;;;28.48;42.13;100389.15;112633;1213;66787;-85
2021/08/26 04:04:03;;;;;;;4.70;3.50;;;;;;;28.48;41.93;100394.89;112600;1216;61265;-86
2021/08/26 04:06:46;;;;;;;4.80;3.60;;;;;;;28.48;42.05;100399.25;112634;1213;60971;-87
2021/08/26 04:09:29;;;;;;;4.50;3.40;;;;;;;28.48;42.04;100398.77;112613;1214;64025;-88
2021/08/26 04:12:04;;;;;;;4.50;3.40;;;;;;;28.48;42.06;100400.73;112587;1222;65739;-84
2021/08/26 04:14:34;;;;;;;5.10;3.80;;;;;;;28.48;42.05;100401.81;112595;1213;61052;-85
2021/08/26 04:17:11;;;;;;;4.40;3.40;;;;;;;28.49;42.10;100407.48;112606;1214;61117;-91
2021/08/26 04:19:49;;;;;;;4.80;3.60;;;;;;;28.49;42.12;100412.41;112592;1216;63751;-87
2021/08/26 04:22:26;;;;;;;4.70;3.50;;;;;;;28.49;41.99;100415.60;112685;1213;66698;-85
2021/08/26 04:24:59;;;;;;;4.50;3.30;;;;;;;28.49;42.10;100418.85;112684;1214;61008;-87
2021/08/26 04:27:25;;;;;;;4.50;3.60;;;;;;;28.49;41.87;100424.28;112609;1222;61052;-86
2021/08/26 04:30:13;;;;;;;4.90;3.50;;;;;;;28.49;41.96;100422.82;112567;1215;73856;-91
2021/08/26 04:32:44;;;;;;;5.40;3.40;;;;;;;28.49;42.05;100421.56;112076;1225;65650;-85
2021/08/26 04:35:33;;;;;;;4.90;3.20;;;;;;;28.49;42.03;100426.05;111991;1218;61819;-84
2021/08/26 04:38:09;;;;;;;4.60;3.40;;;;;;;28.49;42.05;100424.11;112085;1218;61476;-83
2021/08/26 04:40:44;;;;;;;4.60;3.30;;;;;;;28.49;42.00;100428.77;112077;1219;64126;-85
2021/08/26 04:43:15;;;;;;;4.50;3.20;;;;;;;28.50;41.96;100428.40;112089;1225;66558;-89
2021/08/26 04:45:48;;;;;;;4.40;3.40;;;;;;;28.50;42.04;100423.69;112112;1219;61091;-89
2021/08/26 04:48:20;;;;;;;4.10;3.10;;;;;;;28.50;42.02;100428.20;112108;1219;60934;-86
2021/08/26 04:50:46;;;;;;;4.20;3.10;;;;;;;28.50;42.10;100431.45;111990;1226;64082;-85
2021/08/26 04:53:32;;;;;;;4.20;3.20;;;;;;;28.49;42.07;100428.42;111934;1218;68483;-89
2021/08/26 04:56:00;;;;;;;5.00;3.40;;;;;;;28.50;41.96;100430.02;112143;1219;60986;-86
2021/08/26 04:58:35;;;;;;;5.10;3.20;;;;;;;28.50;41.90;100428.19;111985;1218;61063;-81
2021/08/26 05:01:10;;;;;;;5.30;3.50;;;;;;;28.46;41.89;100427.64;112118;1217;63624;-86
2021/08/26 05:04:06;;;;;;;4.70;3.40;;;;;;;28.42;41.81;100426.79;112086;1218;74477;-84
2021/08/26 05:06:51;;;;;;;4.30;3.10;;;;;;;28.40;41.92;100424.86;111959;1219;61588;-84
2021/08/26 05:09:20;;;;;;;4.40;3.30;;;;;;;28.39;41.99;100420.23;112025;1217;60988;-84
2021/08/26 05:11:51;;;;;;;4.70;3.40;;;;;;;28.39;41.95;100422.08;111935;1218;63408;-88
2021/08/26 05:14:22;;;;;;;5.10;3.30;;;;;;;28.39;41.68;100430.96;111926;1218;75926;-87
2021/08/26 05:16:58;;;;;;;4.20;3.30;;;;;;;28.38;41.68;100426.58;112037;1218;60955;-83
2021/08/26 05:19:29;;;;;;;5.00;3.10;;;;;;;28.37;41.33;100423.96;111882;1217;61574;-82
2021/08/26 05:21:55;;;;;;;5.60;3.10;;;;;;;28.37;41.25;100427.94;111960;1216;61120;-87
2021/08/26 05:24:37;;;;;;;5.60;3.20;;;;;;;28.36;41.28;100425.16;112211;1224;61258;-87
2021/08/26 05:27:03;;;;;;;5.60;3.30;;;;;;;28.34;41.07;100429.33;112147;1217;60989;-81
2021/08/26 05:29:50;;;;;;;4.50;3.20;;;;;;;28.33;41.06;100429.33;112276;1219;61076;-86
2021/08/26 05:32:27;;;;;;;4.20;2.90;;;;;;;28.31;41.19;100429.29;112031;1219;64864;-88
2021/08/26 05:34:53;;;;;;;4.30;2.90;;;;;;;28.30;41.06;100432.10;112270;1219;66252;-84
2021/08/26 05:37:18;;;;;;;5.50;3.60;;;;;;;28.30;41.13;100433.13;112547;1221;62078;-82
2021/08/26 05:39:45;;;;;;;4.60;3.20;;;;;;;28.29;41.04;100435.86;112473;1214;61268;-83
2021/08/26 05:42:12;;;;;;;8.30;3.40;;;;;;;28.28;41.00;100435.63;112770;1213;61147;-86
2021/08/26 05:44:39;;;;;;;9.50;3.30;;;;;;;28.26;40.79;100432.27;112524;1221;66451;-80
2021/08/26 05:47:16;;;;;;;10.90;3.90;;;;;;;28.21;40.80;100435.30;112640;1213;61002;-86
2021/08/26 05:50:05;;;;;;;6.20;4.90;;;;;;;28.17;40.56;100437.39;112546;1221;60996;-84
2021/08/26 05:52:53;;;;;;;6.60;3.30;;;;;;;28.11;40.54;100438.30;112513;1215;63926;-89
2021/08/26 05:55:19;;;;;;;6.00;3.40;;;;;;;28.08;40.69;100441.17;112139;1216;66049;-83
2021/08/26 05:57:45;;;;;;;6.00;2.90;;;;;;;28.06;40.64;100437.98;112276;1216;59998;-87
2021/08/26 06:00:14;;;;;;;5.50;3.60;;;;;;;28.04;40.46;100434.94;112257;1224;61256;-87
2021/08/26 06:02:40;;;;;;;6.50;3.00;;;;;;;28.04;40.38;100432.23;111976;1219;64780;-86
2021/08/26 06:05:32;;;;;;;15.70;4.10;;;;;;;28.04;40.45;100432.02;111885;1224;61021;-83
2021/08/26 06:08:01;;;;;;;9.70;3.60;;;;;;;27.99;40.42;100434.16;111700;1219;61106;-84
2021/08/26 06:10:27;;;;;;;6.40;3.40;;;;;;;27.97;40.26;100431.33;111617;1219;61008;-87
2021/08/26 06:12:53;;;;;;;6.60;3.20;;;;;;;27.97;40.32;100432.72;111836;1219;61052;-86
2021/08/26 06:15:26;;;;;;;5.60;4.00;;;;;;;28.00;40.13;100434.64;111881;1219;61436;-87
2021/08/26 06:17:52;;;;;;;6.50;3.30;;;;;;;28.01;40.23;100436.35;111700;1228;60979;-87
2021/08/26 06:20:44;;;;;;;;;;;;;;;;;;;;;
2021/08/26 06:23:24;;;;;;;6.20;3.40;;;;;;;27.99;40.00;100435.30;111923;1225;63711;-86
2021/08/26 06:25:59;;;;;;;8.40;4.40;;;;;;;27.97;39.98;100438.52;111985;1218;65792;-87
2021/08/26 06:29:05;;;;;;;6.70;4.20;;;;;;;27.88;39.74;100437.50;111801;1219;60984;-86
2021/08/26 06:31:44;;;;;;;7.30;4.20;;;;;;;27.70;39.66;100438.44;111721;1225;61375;-88
2021/08/26 06:34:10;;;;;;;5.90;3.50;;;;;;;27.63;39.96;100442.10;111875;1219;64664;-83
2021/08/26 06:36:59;;;;;;;6.60;3.10;;;;;;;27.65;40.00;100449.30;111457;1221;65776;-81
2021/08/26 06:39:29;;;;;;;7.90;3.50;;;;;;;27.71;39.96;100445.63;111692;1228;61693;-83
2021/08/26 06:42:08;;;;;;;8.30;3.50;;;;;;;27.74;39.85;100444.98;111586;1229;61009;-88
2021/08/26 06:44:54;;;;;;;;;;;;;;;27.73;39.80;100441.01;111706;1226;65145;-87
2021/08/26 06:47:20;;;;;;;4.00;3.20;;;;;;;27.72;39.74;100435.02;111750;1218;65838;-86
2021/08/26 06:49:53;;;;;;;7.80;3.90;;;;;;;27.72;39.86;100424.19;111940;1227;61120;-87
2021/08/26 06:52:19;;;;;;;5.60;3.40;;;;;;;27.73;39.73;100417.34;111598;1228;60963;-85
2021/08/26 06:54:54;;;;;;;5.80;3.70;;;;;;;27.73;39.79;100416.27;111586;1228;64630;-85
2021/08/26 06:57:48;;;;;;;7.40;3.40;;;;;;;27.71;39.72;100413.60;111725;1228;65786;-83
2021/08/26 07:00:22;;;;;;;4.70;3.20;;;;;;;27.72;39.62;100414.52;111726;1228;61170;-89
2021/08/26 07:03:14;;;;;;;4.80;2.90;;;;;;;27.75;39.46;100420.20;111799;1227;61158;-86
2021/08/26 07:05:52;;;;;;;6.40;3.50;;;;;;;27.80;39.48;100419.40;111699;1227;63467;-86
2021/08/26 07:08:18;;;;;;;;;;;;;;;27.84;39.63;100421.45;111723;1228;66094;-89
2021/08/26 07:11:11;;;;;;;5.40;3.40;;;;;;;27.83;39.77;100417.17;111788;1227;62461;-86
2021/08/26 07:13:53;;;;;;;4.70;3.20;;;;;;;27.83;39.45;100410.36;111958;1223;60960;-86
2021/08/26 07:16:30;;;;;;;4.30;3.40;;;;;;;27.84;39.28;100403.54;112256;1224;63762;-86
2021/08/26 07:19:07;;;;;;;4.40;2.90;;;;;;;27.87;39.46;100403.92;112268;1224;66846;-83
2021/08/26 07:21:41;;;;;;;5.40;2.90;;;;;;;27.90;39.48;100402.89;111979;1216;60959;-88
2021/08/26 07:24:10;;;;;;;4.40;3.10;;;;;;;27.93;39.44;100409.63;111984;1218;61114;-86
2021/08/26 07:26:42;;;;;;;6.10;3.50;;;;;;;27.95;39.31;100414.56;112102;1218;63619;-80
2021/08/26 07:29:21;;;;;;;5.60;3.10;;;;;;;27.96;39.14;100416.60;112215;1216;66791;-91
2021/08/26 07:32:04;;;;;;;5.70;2.70;;;;;;;27.96;38.99;100423.86;112091;1225;60957;-88
2021/08/26 07:34:35;;;;;;;5.10;3.00;;;;;;;27.96;39.11;100427.02;112197;1215;61438;-84
2021/08/26 07:37:12;;;;;;;4.50;2.80;;;;;;;27.98;39.14;100429.70;112590;1221;63848;-84
2021/08/26 07:39:44;;;;;;;6.30;3.60;;;;;;;28.00;39.19;100425.92;112648;1213;65762;-85
2021/08/26 07:42:21;;;;;;;6.50;3.60;;;;;;;27.98;39.01;100417.46;112568;1221;60981;-83
2021/08/26 07:44:46;;;;;;;5.60;3.10;;;;;;;27.93;38.98;100414.56;112424;1220;60978;-83
2021/08/26 07:47:12;;;;;;;4.20;2.90;;;;;;;27.93;39.00;100413.61;112519;1212;60997;-83
2021/08/26 07:49:38;;;;;;;9.60;3.30;;;;;;;27.95;39.06;100421.59;112554;1215;60974;-87
2021/08/26 07:52:13;;;;;;;6.70;3.30;;;;;;;27.98;38.87;100423.83;112735;1220;61014;-88
2021/08/26 07:54:38;;;;;;;5.60;3.30;;;;;;;27.99;38.76;100419.89;112802;1213;61343;-84
2021/08/26 07:57:16;;;;;;;4.40;3.00;;;;;;;28.00;38.81;100414.00;112753;1213;63892;-83
2021/08/26 07:59:57;;;;;;;4.70;3.00;;;;;;;28.01;38.81;100408.24;112758;1213;65756;-86
2021/08/26 08:02:25;;;;;;;9.00;3.30;;;;;;;28.02;38.62;100410.92;112381;1216;60980;-89
2021/08/26 08:05:01;;;;;;;6.20;3.60;;;;;;;28.02;38.79;100418.09;112593;1220;62240;-83
2021/08/26 08:07:27;;;;;;;4.80;3.50;;;;;;;28.02;38.74;100419.44;112452;1212;61303;-83
2021/08/26 08:09:53;;;;;;;5.70;3.20;;;;;;;28.03;38.58;100424.38;112416;1216;60968;-82
2021/08/26 08:12:18;;;;;;;4.60;2.90;;;;;;;28.04;38.58;100424.56;112479;1212;61094;-83
2021/08/26 08:14:44;;;;;;;5.10;3.70;;;;;;;28.06;38.73;100421.54;112486;1212;60945;-83
2021/08/26 08:17:10;;;;;;;6.10;3.80;;;;;;;28.07;38.53;100417.20;112517;1215;61236;-83
2021/08/26 08:19:36;;;;;;;4.90;3.00;;;;;;;28.07;38.34;100418.54;112376;1212;64640;-82
2021/08/26 08:22:01;;;;;;;5.00;3.30;;;;;;;28.06;38.34;100422.75;112462;1215;61088;-88
2021/08/26 08:24:28;;;;;;;5.60;3.30;;;;;;;28.07;38.55;100419.14;112726;1221;61039;-84
2021/08/26 08:27:06;;;;;;;4.20;2.90;;;;;;;28.08;38.60;100413.11;112665;1214;61079;-85
2021/08/26 08:29:34;;;;;;;5.70;3.50;;;;;;;28.10;38.54;100413.36;112465;1214;63741;-83
2021/08/26 08:32:06;;;;;;;4.40;3.10;;;;;;;28.10;38.40;100403.36;112580;1215;65856;-88
2021/08/26 08:34:34;;;;;;;5.00;3.30;;;;;;;28.11;38.52;100396.60;112615;1213;60958;-83
2021/08/26 08:37:09;;;;;;;6.60;3.60;;;;;;;28.12;38.44;100399.22;112687;1213;61442;-87
2021/08/26 08:39:49;;;;;;;10.00;4.10;;;;;;;28.11;38.49;100399.80;112659;1220;63711;-84
2021/08/26 08:42:21;;;;;;;5.60;3.50;;;;;;;28.09;38.13;100400.23;112608;1212;66710;-85
2021/08/26 08:44:51;;;;;;;5.10;3.60;;;;;;;28.08;38.10;100401.06;112718;1220;61049;-85
2021/08/26 08:47:28;;;;;;;6.80;3.80;;;;;;;28.06;38.14;100394.90;112442;1216;61026;-82
2021/08/26 08:49:58;;;;;;;8.70;4.40;;;;;;;28.04;38.09;100387.66;112488;1213;64604;-84
2021/08/26 08:52:24;;;;;;;;;;;;;;;27.98;38.05;100387.44;112827;1211;66901;-82
2021/08/26 08:54:52;;;;;;;8.90;4.20;;;;;;;27.87;37.92;100394.07;112789;1212;61041;-82
2021/08/26 08:57:28;;;;;;;6.00;3.90;;;;;;;27.78;38.08;100403.33;112755;1212;61208;-84
2021/08/26 08:59:54;;;;;;;8.30;4.10;;;;;;;27.79;38.14;100405.81;112726;1219;63702;-87
2021/08/26 09:02:20;;;;;;;5.60;4.10;;;;;;;27.81;37.83;100404.05;112879;1219;61552;-85
2021/08/26 09:05:01;;;;;;;9.30;4.60;;;;;;;27.82;37.85;100402.89;112844;1219;60936;-82
2021/08/26 09:07:29;;;;;;;8.10;4.40;;;;;;;27.75;37.66;100401.59;112846;1218;60971;-83
2021/08/26 09:09:57;;;;;;;5.70;3.70;;;;;;;27.73;37.74;100401.65;112675;1219;64792;-82
2021/08/26 09:12:49;;;;;;;9.70;4.20;;;;;;;27.77;37.71;100396.88;112891;1217;75631;-92
2021/08/26 09:15:30;;;;;;;;;;;;;;;;;;;;;
2021/08/26 09:18:17;;;;;;;6.60;4.20;;;;;;;27.78;38.04;100402.00;113022;1217;60954;-85
2021/08/26 09:21:10;;;;;;;5.40;3.50;;;;;;;27.79;37.75;100406.62;112995;1217;63454;-83
2021/08/26 09:24:06;;;;;;;;;;;;;;;;;;;;;
2021/08/26 09:26:42;;;;;;;5.00;3.90;;;;;;;27.79;37.80;100399.56;112460;1222;59386;-83
2021/08/26 09:29:11;;;;;;;6.80;3.70;;;;;;;27.78;37.92;100397.86;112463;1216;61096;-82
2021/08/26 09:31:57;;;;;;;7.00;4.00;;;;;;;27.80;37.69;100395.02;112341;1216;66730;-85
2021/08/26 09:34:43;;;;;;;7.60;3.90;;;;;;;27.79;37.56;100393.43;112274;1217;61060;-84
2021/08/26 09:37:12;;;;;;;6.80;3.90;;;;;;;27.77;37.44;100394.54;112519;1215;61146;-80
2021/08/26 09:39:46;;;;;;;5.60;3.50;;;;;;;27.78;37.36;100395.66;112274;1222;61146;-84
2021/08/26 09:42:12;;;;;;;6.10;3.60;;;;;;;27.82;37.18;100387.30;112219;1218;63585;-84
2021/08/26 09:45:24;;;;;;;7.10;3.80;;;;;;;27.85;37.25;100377.24;112339;1216;65643;-87
2021/08/26 09:48:04;;;;;;;5.90;3.60;;;;;;;27.86;37.17;100384.67;112244;1216;59123;-82
2021/08/26 09:50:45;;;;;;;6.70;3.80;;;;;;;27.88;37.36;100386.08;112324;1222;61328;-86
2021/08/26 09:53:15;;;;;;;5.80;4.00;;;;;;;27.91;37.22;100378.80;112346;1216;63726;-84
2021/08/26 09:56:09;;;;;;;5.20;3.80;;;;;;;27.92;37.30;100377.52;112304;1217;65825;-83
2021/08/26 09:58:56;;;;;;;7.10;4.30;;;;;;;27.95;37.34;100376.92;112455;1221;61072;-84
2021/08/26 10:01:34;;;;;;;6.00;3.90;;;;;;;27.95;37.25;100374.02;112774;1215;60966;-87
2021/08/26 10:04:04;;;;;;;5.80;3.60;;;;;;;27.93;37.11;100370.22;112874;1217;64654;-85
2021/08/26 10:06:30;;;;;;;5.90;3.80;;;;;;;27.95;37.18;100372.18;112731;1217;66824;-85
2021/08/26 10:08:59;;;;;;;5.10;3.50;;;;;;;27.97;37.42;100372.45;112768;1210;61064;-83
2021/08/26 10:11:56;;;;;;;4.40;3.30;;;;;;;28.00;37.25;100376.69;112824;1211;61000;-90
2021/08/26 10:14:27;;;;;;;5.10;3.50;;;;;;;28.03;37.27;100371.92;112808;1216;66284;-85
2021/08/26 10:16:56;;;;;;;5.50;3.80;;;;;;;28.06;37.52;100374.52;112883;1218;65975;-88
2021/08/26 10:19:25;;;;;;;5.20;3.70;;;;;;;28.07;37.45;100381.91;112836;1213;61114;-85
2021/08/26 10:21:51;;;;;;;;;;;;;;;28.09;37.40;100382.30;112982;1217;60999;-87
2021/08/26 10:24:20;;;;;;;5.00;3.30;;;;;;;28.09;37.09;100376.34;112918;1210;64848;-80
2021/08/26 10:26:51;;;;;;;6.00;3.50;;;;;;;28.10;37.26;100379.81;112804;1213;65693;-84
2021/08/26 10:29:21;;;;;;;4.80;3.50;;;;;;;28.13;37.14;100379.17;112987;1211;61095;-83
2021/08/26 10:31:58;;;;;;;5.00;3.50;;;;;;;28.14;37.11;100371.52;112929;1211;60989;-83
2021/08/26 10:34:29;;;;;;;5.60;3.40;;;;;;;28.15;37.16;100374.98;112955;1211;63516;-85
2021/08/26 10:37:18;;;;;;;6.70;3.90;;;;;;;28.17;37.17;100373.48;112930;1210;65639;-86
2021/08/26 10:39:53;;;;;;;5.60;3.60;;;;;;;28.17;36.98;100375.63;112560;1217;60918;-86
2021/08/26 10:42:45;;;;;;;6.00;3.50;;;;;;;28.19;37.12;100385.56;112441;1216;61172;-85
2021/08/26 10:45:20;;;;;;;7.10;3.70;;;;;;;28.20;37.07;100381.80;111943;1225;63638;-82
2021/08/26 10:48:01;;;;;;;4.80;3.50;;;;;;;28.21;37.09;100372.06;111727;1221;65210;-84
2021/08/26 10:51:01;;;;;;;7.30;3.80;;;;;;;28.23;36.98;100366.84;112002;1218;61139;-83
2021/08/26 10:53:28;;;;;;;4.30;3.50;;;;;;;28.23;36.95;100368.77;111752;1221;61211;-85
2021/08/26 10:56:13;;;;;;;5.30;3.60;;;;;;;28.25;36.80;100377.06;111814;1226;64804;-89
2021/08/26 10:58:41;;;;;;;5.10;4.10;;;;;;;28.27;36.97;100378.76;111945;1225;65871;-85
2021/08/26 11:01:11;;;;;;;7.80;3.90;;;;;;;28.28;36.95;100376.84;111978;1225;61025;-82
2021/08/26 11:03:50;;;;;;;6.20;3.90;;;;;;;28.29;37.07;100371.98;111619;1227;60985;-85
2021/08/26 11:06:39;;;;;;;5.90;3.80;;;;;;;28.30;37.10;100366.23;112012;1225;64828;-89
2021/08/26 11:09:34;;;;;;;7.10;3.80;;;;;;;28.32;37.02;100361.40;111480;1229;75672;-86
2021/08/26 11:12:23;;;;;;;4.60;3.60;;;;;;;28.32;36.92;100357.21;111716;1228;60953;-85
2021/08/26 11:14:51;;;;;;;5.90;4.00;;;;;;;28.33;36.71;100351.89;111616;1228;61184;-84
2021/08/26 11:17:34;;;;;;;5.80;4.10;;;;;;;28.33;36.77;100352.71;111764;1221;64822;-87
2021/08/26 11:20:29;;;;;;;4.90;3.70;;;;;;;28.34;36.83;100356.20;112028;1218;66571;-84
2021/08/26 11:23:07;;;;;;;5.70;3.50;;;;;;;28.35;36.78;100358.52;112470;1221;61126;-85
2021/08/26 11:25:34;;;;;;;5.70;3.90;;;;;;;28.36;36.85;100357.82;112589;1222;61258;-88
2021/08/26 11:28:48;;;;;;;6.70;4.10;;;;;;;28.36;36.87;100353.09;112495;1222;63800;-84
2021/08/26 11:31:24;;;;;;;6.10;3.80;;;;;;;28.36;36.85;100342.59;112096;1219;65617;-88
2021/08/26 11:34:01;;;;;;;4.70;3.70;;;;;;;28.37;36.87;100341.07;111913;1217;61050;-84
2021/08/26 11:36:27;;;;;;;5.60;4.10;;;;;;;28.38;36.87;100340.09;111953;1225;60946;-83
2021/08/26 11:38:56;;;;;;;5.80;3.70;;;;;;;28.38;36.91;100341.28;112078;1219;60971;-84
2021/08/26 11:41:32;;;;;;;;;;;;;;;28.39;36.80;100343.17;112077;1225;65887;-85
2021/08/26 11:43:58;;;;;;;5.40;3.50;;;;;;;28.38;36.86;100340.97;112102;1219;60957;-85
2021/08/26 11:46:38;;;;;;;5.80;3.90;;;;;;;28.39;36.90;100345.45;112261;1214;60808;-85
2021/08/26 11:49:19;;;;;;;4.90;3.80;;;;;;;28.39;36.61;100343.21;112359;1215;63955;-89
2021/08/26 11:52:21;;;;;;;5.00;3.60;;;;;;;28.39;36.65;100338.83;112585;1213;65841;-86
2021/08/26 11:55:10;;;;;;;5.80;3.70;;;;;;;28.39;36.87;100347.04;112402;1216;61004;-84
2021/08/26 11:57:48;;;;;;;4.90;3.80;;;;;;;28.39;36.66;100349.17;112188;1216;60981;-84
2021/08/26 12:00:16;;;;;;;5.80;3.80;;;;;;;28.40;36.67;100346.77;112088;1216;63627;-83
2021/08/26 12:02:50;;;;;;;5.10;3.80;;;;;;;28.40;36.55;100353.56;111976;1219;65592;-90
2021/08/26 12:05:18;;;;;;;6.80;3.70;;;;;;;28.40;36.57;100351.39;112153;1216;60975;-85
2021/08/26 12:07:45;;;;;;;4.60;3.60;;;;;;;28.41;36.69;100346.98;112027;1216;61256;-84